Midwest City, Oklahoma
Current Conditions -  °F | °C
As of 9:58 PM on Thursday 27 Nov 2014 (Local Time) from KTIK Reporting Station
Clear Clear  
Wind Chill: 36°   Ceiling: Unl
Heat Index: 42°   Visibility: 10mi
Dew Point: 22°   Wind: 12mph
Humidity: 45%   Direction: 170°S
Pressure: 30.29"   Gusts: NA
Location:  35.46°N, 97.38°W
Report Text: KTIK 280358Z AUTO 17010KT 10SM CLR 06/M05 A3029 RMK AO2 SLP271 T00571053
Loading
Personal Weather Stations






























Interactive Weather Map New forecast layout! Learn more

10-Day Weather Forecast

Advertisements
Track Severe Weather on mobile